Flight Track Log - Related Links

Times and Time Zones

All times are in EDT time to prevent confusion due to time zone crossing. See the N44979 flight status page for this flight to view local times or setup timezone preferences in your user account.

Time Position Orientation Groundspeed Altitude Reporting Facility
EDT Latitude Longitude Course Direction KTS MPH feet Rate Location/Type
Mon 01:07:41 PM 31.5269 -84.2161 350° North 124 143 1,000  Level Jacksonville Center
Mon 01:08:41 PM 31.5542 -84.2236 347° North 70 81 1,700 650 Climbing Jacksonville Center
Mon 01:09:00 PM 31.6337 -84.2236 346° North  Level FlightAware Approximate
Mon 01:09:41 PM 31.5792 -84.2289 350° North 72 83 2,300  Level Jacksonville Center
Mon 01:10:00 PM 31.6668 -84.2334 350° North  Level FlightAware Approximate
Mon 01:10:41 PM 31.6061 -84.2342 351° North 86 99 3,000  Level Jacksonville Center
Mon 01:11:00 PM 31.7001 -84.2400 350° North  Level FlightAware Approximate
Mon 01:11:41 PM 31.6311 -84.2394 350° North 92 106 3,500  Level Jacksonville Center
Mon 01:12:42 PM 31.6583 -84.2472 346° North 92 106 4,000 550 Climbing Jacksonville Center
Mon 01:13:41 PM 31.6811 -84.2500 354° North 87 100 4,600 500 Climbing Jacksonville Center
Mon 01:14:42 PM 31.7083 -84.2553 351° North 87 100 5,000 450 Climbing Jacksonville Center
Mon 01:15:41 PM 31.7333 -84.2606 350° North 87 100 5,500 504 Climbing Jacksonville Center
Mon 01:16:41 PM 31.7561 -84.2681 344° North 87 100 6,000 248 Climbing Jacksonville Center
Mon 01:17:42 PM 31.7872 -84.2758 348° North 93 107 6,000  Level Jacksonville Center
Mon 01:20:02 PM 31.8667 -84.3000 346° North 113 130 6,000 -30 Level Atlanta TRACON
Mon 01:21:02 PM 31.8833 -84.3167 320° Northwest 114 131 5,900 53 Descending Atlanta TRACON
Mon 01:21:56 PM 31.9167 -84.3333 337° Northwest 111 128 6,100 50 Climbing Atlanta TRACON
Mon 01:23:02 PM 31.9500 -84.3500 337° Northwest 112 129 6,000 -95 Descending Atlanta TRACON
Mon 01:24:02 PM 31.9667 -84.3667 320° Northwest 110 127 5,900  Descending Atlanta TRACON
Mon 01:25:02 PM 32.0000 -84.3833 337° Northwest 105 121 6,000  Climbing Atlanta TRACON
Mon 01:26:02 PM 32.0333 -84.4000 337° Northwest 113 130 5,900  Descending Atlanta TRACON
Mon 01:26:56 PM 32.0500 -84.4000 360° North 118 136 6,000  Climbing Atlanta TRACON
Mon 01:27:56 PM 32.0833 -84.4167 337° Northwest 116 133 5,900 -48 Descending Atlanta TRACON
Mon 01:29:02 PM 32.1167 -84.4333 337° Northwest 107 123 5,900  Level Atlanta TRACON
Mon 01:30:02 PM 32.1333 -84.4500 320° Northwest 107 123 5,900  Level Atlanta TRACON
Mon 01:31:03 PM 32.1667 -84.4667 337° Northwest 116 133 5,900  Level Atlanta TRACON
Mon 01:32:09 PM 32.2000 -84.4833 337° Northwest 113 130 5,900  Level Atlanta TRACON
Mon 01:33:03 PM 32.2167 -84.5000 320° Northwest 111 128 5,900  Level Atlanta TRACON
Mon 01:34:03 PM 32.2500 -84.5167 337° Northwest 113 130 5,900  Level Atlanta TRACON
Mon 01:35:03 PM 32.2833 -84.5333 337° Northwest 111 128 5,900  Level Atlanta TRACON
Mon 01:36:03 PM 32.3000 -84.5500 320° Northwest 109 125 5,900  Level Atlanta TRACON
Mon 01:37:03 PM 32.3333 -84.5667 337° Northwest 109 125 5,900  Level Atlanta TRACON
Mon 01:38:03 PM 32.3667 -84.5833 337° Northwest 111 128 5,900  Level Atlanta TRACON
Mon 01:39:03 PM 32.3833 -84.6000 320° Northwest 108 124 5,900  Level Atlanta TRACON
Mon 01:39:57 PM 32.4167 -84.6167 337° Northwest 113 130 5,900  Level Atlanta TRACON
Mon 01:41:03 PM 32.4500 -84.6167 360° North 112 129 5,900  Level Atlanta TRACON
Mon 01:42:03 PM 32.4833 -84.6000 23° Northeast 115 132 5,900  Level Atlanta TRACON
Mon 01:43:03 PM 32.5167 -84.6000 360° North 117 135 5,900  Level Atlanta TRACON
Mon 01:44:03 PM 32.5500 -84.6000 360° North 122 140 5,900  Level Atlanta TRACON
Mon 01:45:03 PM 32.5833 -84.6000 360° North 117 135 5,900  Level Atlanta TRACON
Mon 01:46:03 PM 32.6000 -84.5833 40° Northeast 118 136 5,900  Level Atlanta TRACON
Mon 01:46:57 PM 32.6333 -84.5833 360° North 121 139 5,900  Level Atlanta TRACON
Mon 01:47:57 PM 32.6667 -84.5833 360° North 118 136 5,900 50 Level Atlanta TRACON
Mon 01:48:57 PM 32.7000 -84.5667 23° Northeast 119 137 6,000  Climbing Atlanta TRACON
Mon 01:49:57 PM 32.7333 -84.5667 360° North 123 142 5,900 -50 Descending Atlanta TRACON
Mon 01:50:57 PM 32.7667 -84.5667 360° North 125 144 5,900  Level Atlanta TRACON
Mon 01:51:57 PM 32.8000 -84.5500 23° Northeast 120 138 5,900  Level Atlanta TRACON
Mon 01:52:57 PM 32.8333 -84.5500 360° North 123 142 5,900  Level Atlanta TRACON
Mon 01:53:57 PM 32.8667 -84.5500 360° North 122 140 5,900  Level Atlanta TRACON
Mon 01:54:57 PM 32.9000 -84.5500 360° North 120 138 5,900  Level Atlanta TRACON
Mon 01:55:57 PM 32.9333 -84.5333 23° Northeast 120 138 5,900  Level Atlanta TRACON
Mon 01:56:57 PM 32.9667 -84.5333 360° North 124 143 5,900  Level Atlanta TRACON
Mon 01:57:57 PM 33.0000 -84.5333 360° North 121 139 5,900  Level Atlanta TRACON
Mon 01:58:51 PM 33.0333 -84.5167 23° Northeast 122 140 5,900 50 Level Atlanta TRACON
Mon 01:59:57 PM 33.0667 -84.5167 360° North 121 139 6,000 -143 Climbing Atlanta TRACON
Mon 02:00:57 PM 33.1000 -84.5167 360° North 119 137 5,600 -500 Descending Atlanta TRACON
Mon 02:01:57 PM 33.1333 -84.5000 23° Northeast 118 136 5,000 -286 Descending Atlanta TRACON
Mon 02:03:03 PM 33.1667 -84.5000 360° North 120 138 5,000  Level Atlanta TRACON
Mon 02:04:03 PM 33.2000 -84.4833 23° Northeast 122 140 5,000  Level Atlanta TRACON
Mon 02:05:03 PM 33.2333 -84.4833 360° North 118 136 5,000  Level Atlanta TRACON
Mon 02:06:03 PM 33.2667 -84.4833 360° North 117 135 5,000  Level Atlanta TRACON
Mon 02:07:03 PM 33.3000 -84.4667 23° Northeast 116 133 5,000  Level Atlanta TRACON
Mon 02:08:03 PM 33.3333 -84.4667 360° North 118 136 5,000 50 Level Atlanta TRACON
Mon 02:09:03 PM 33.3667 -84.4667 360° North 122 140 5,100  Climbing Atlanta TRACON
Mon 02:09:58 PM 33.4000 -84.4500 23° Northeast 123 142 5,000 -50 Descending Atlanta TRACON
Mon 02:11:03 PM 33.4333 -84.4500 360° North 125 144 5,000  Level Atlanta TRACON
Mon 02:12:03 PM 33.4667 -84.4333 23° Northeast 119 137 5,000  Level Atlanta TRACON
Mon 02:13:04 PM 33.5000 -84.4333 360° North 117 135 5,000  Level Atlanta TRACON
Mon 02:14:04 PM 33.5333 -84.4333 360° North 115 132 5,000  Level Atlanta TRACON
Mon 02:15:04 PM 33.5667 -84.4167 23° Northeast 111 128 5,000  Level Atlanta TRACON
Mon 02:16:03 PM 33.6000 -84.4167 360° North 110 127 5,000  Level Atlanta TRACON
Mon 02:16:58 PM 33.6167 -84.4167 360° North 117 135 5,000  Level Atlanta TRACON
Mon 02:17:58 PM 33.6500 -84.4000 23° Northeast 111 128 5,000  Level Atlanta TRACON
Mon 02:19:58 PM 33.7167 -84.4000 360° North 107 123 5,000  Level Atlanta TRACON
Mon 02:20:57 PM 33.7333 -84.3833 40° Northeast 104 120 5,000  Level Atlanta TRACON
Mon 02:21:58 PM 33.7667 -84.3833 360° North 106 122 5,000 -347 Level Atlanta TRACON
Mon 02:22:58 PM 33.8000 -84.3833 360° North 107 123 4,300 -432 Descending Atlanta TRACON
Mon 02:24:03 PM 33.8333 -84.3667 23° Northeast 107 123 4,100 -100 Descending Atlanta TRACON
Mon 02:24:58 PM 33.8500 -84.3667 360° North 109 125 4,100 -104 Level Atlanta TRACON
Mon 02:25:58 PM 33.8833 -84.3667 360° North 107 123 3,900 -400 Descending Atlanta TRACON
Mon 02:26:58 PM 33.9167 -84.3667 360° North 103 119 3,300 -381 Descending Atlanta TRACON
Mon 02:28:04 PM 33.9500 -84.3667 360° North 107 123 3,100 -100 Descending Atlanta TRACON
Mon 02:28:58 PM 33.9833 -84.3667 360° North 104 120 3,100 -53 Level Atlanta TRACON
Mon 02:29:58 PM 34.0000 -84.3833 320° Northwest 98 113 3,000 -50 Descending Atlanta TRACON
Mon 02:30:58 PM 34.0000 -84.4000 270° West 97 112 3,000  Level Atlanta TRACON
Mon 02:31:58 PM 34.0167 -84.4333 301° West 99 114 3,000  Level Atlanta TRACON
Mon 02:32:58 PM 34.0167 -84.4667 270° West 98 113 3,000 -263 Level Atlanta TRACON
Mon 02:33:52 PM 34.0167 -84.5000 270° West 103 119 2,500 -526 Descending Atlanta TRACON
Mon 02:34:52 PM 34.0167 -84.5333 270° West 92 106 2,000 -450 Descending Atlanta TRACON
Mon 02:35:52 PM 34.0167 -84.5667 270° West 98 113 1,600 -400 Descending Atlanta TRACON
Mon 02:37:00 PM 34.0000 -84.5833 90° East  Level FlightAware Approximate

Login

Don't have an account? Register now (free) for customized features, flight alerts, and more!